Cisco Butte, California Weather observations

Data are for observation ending at time listed.
 Day   Time    Ave.   Ave.  Ave.  Vector   Max.   Stn.    Total    Solar   Ave.   Snow 
  of    of     Air    Rel.  Wind   Wind    Wind   Baro.  Precip.   Rad.    Soil   Depth
Year   Day     Temp.  Hum.  Speed  Dir.    Gust   Pres.                    Temp.       
2016   (PST)    F      %     mph   deg.    mph     mb.     in.     W/m2     F      in. 
---------------------------------------------------------------------------------------  
 147   19:50   47.1    77    1.4   258      3.7   824.0    0.00       0    999.0   96.1
 147   20:00   46.5    78    1.0   272      3.1   824.0    0.00       0    999.0  159.1
 147   20:10   46.1    79    0.7   258      2.0   824.0    0.00       0    999.0   79.4
 147   20:20   46.0    80    0.1   201      1.4   824.0    0.00       0    999.0  111.3
 147   20:30   45.9    80    0.0     0      0.0   824.0    0.00       0    999.0  127.3
 147   20:40   46.1    79    0.0   222      0.4   824.0    0.00       0    999.0   94.6
 147   20:50   46.8    77    0.0     0      0.0   824.0    0.00       0    999.0   79.5
 147   21:00   47.0    76    0.5    80      2.0   824.0    0.00       0    999.0   79.3
 147   21:10   46.9    77    2.8    84      4.1   824.0    0.00       0    999.0   -0.4
 147   21:20   45.9    80    2.7    94      4.3   824.0    0.00       0    999.0   -0.6
 147   21:30   45.3    81    2.3    92      4.4   824.0    0.00       0    999.0   31.4
 147   21:40   45.0    82    3.0    92      4.9   824.0    0.00       0    999.0   48.2
 147   21:50   45.0    82    3.1    80      4.8   824.0    0.00       0    999.0   79.3
 147   22:00   44.4    83    5.2    96      8.7   824.0    0.00       0    999.0  159.2
 147   22:10   43.4    85    4.9   100      8.5   824.0    0.00       0    999.0  159.3
 147   22:20   43.7    84    4.7    90      7.1   824.0    0.00       0    999.0  159.3
 147   22:30   44.3    83    3.6    78      5.3   824.0    0.00       0    999.0  159.3
 147   22:40   44.4    82    3.0    91      4.5   824.0    0.00       0    999.0  159.3
 147   22:50   43.2    84    3.0    71      4.9   824.0    0.00       0    999.0  159.3
 147   23:00   42.8    85    3.4    90      6.5   824.0    0.00       0    999.0  159.3
 147   23:10   42.3    85    4.0    98      7.2   824.0    0.00       0    999.0  159.4
 147   23:20   42.1    86    3.6    77      5.5   824.0    0.00       0    999.0  159.4
 147   23:30   42.4    86    3.5    65      5.0   824.0    0.00       0    999.0  159.4
 147   23:40   42.5    85    3.7    85      6.9   824.0    0.00       0    999.0  159.4
 147   23:50   42.2    85    3.4    96      6.1   824.0    0.00       0    999.0  159.4
 148    0:00   42.1    85    2.5    84      5.1   824.0    0.00       0    999.0  159.4
 148    0:10   42.2    84    2.5    94      4.5   824.0    0.00       0    999.0  159.4
 148    0:20   41.7    84    3.6    93      6.6   824.0    0.00       0    999.0  159.4
 148    0:30   41.7    84    3.9    89      6.6   824.0    0.00       0    999.0  159.4
 148    0:40   41.5    84    4.6   105      8.0   824.0    0.00       0    999.0  159.3
 148    0:50   41.0    85    4.9   103      7.8   824.0    0.00       0    999.0  159.3
 148    1:00   41.0    85    5.4   103      8.8   824.0    0.00       0    999.0  159.2
 148    1:10   41.1    83    4.9    93      8.1   823.0    0.00       0    999.0  159.1
 148    1:20   40.8    84    6.3   100     11.2   823.0    0.00       0    999.0  159.1
 148    1:30   40.7    83    6.0   108      9.1   823.0    0.00       0    999.0  142.3
 148    1:40   40.5    83    4.9   100      8.9   823.0    0.00       0    999.0  128.0
 148    1:50   40.9    81    4.0    95      8.4   823.0    0.00       0    999.0  159.1
 148    2:00   41.3    79    3.4    72      6.4   823.0    0.00       0    999.0  151.4
 148    2:10   41.9    76    2.8    67      5.8   823.0    0.00       0    999.0  127.3
 148    2:20   42.0    75    1.8    71      4.2   823.0    0.00       0    999.0  135.5
 148    2:30   42.0    76    3.9   108      7.5   823.0    0.00       0    999.0  119.0
 148    2:40   42.2    74    2.8   107      7.7   823.0    0.00       0    999.0   72.1
 148    2:50   42.2    73    4.5   107      7.2   823.0    0.00       0    999.0   72.2
 148    3:00   42.3    71    5.3   106      8.6   823.0    0.00       0    999.0   79.9
 148    3:10   42.0    71    6.1   113      9.2   823.0    0.00       0    999.0   56.0
 148    3:20   42.0    70    7.9   114     11.0   823.0    0.00       0    999.0   56.5
 148    3:30   42.0    68    8.1   115     11.8   823.0    0.00       0    999.0   64.1
 148    3:40   41.8    69    9.1   116     12.6   823.0    0.00       0    999.0   39.9
 148    3:50   41.0    72    9.3   110     13.4   823.0    0.00       0    999.0   47.5
 148    4:00   41.3    71    9.1   109     11.8   822.0    0.00       0    999.0   48.4
 148    4:10   41.7    69   10.3   110     13.5   822.0    0.00       0    999.0   39.5
 148    4:20   41.2    72    9.8   107     12.8   822.0    0.00       0    999.0   40.0
 148    4:30   41.2    75   10.4   107     14.0   822.0    0.00       0    999.0   40.0
 148    4:40   41.1    75   10.5   104     13.6   822.0    0.00       1    999.0   40.4
 148    4:50   41.0    74   10.3   106     13.2   822.0    0.00       4    999.0   31.9
 148    5:00   40.5    75   10.5   108     13.2   822.0    0.00       7    999.0   23.9
 148    5:10   40.7    76    9.7   106     12.7   822.0    0.00      19    999.0   47.6
 148    5:20   41.1    75    9.2   108     11.7   822.0    0.00      30    999.0   40.4
 148    5:30   41.4    74    9.4   108     12.5   823.0    0.00      42    999.0   55.7
 148    5:40   42.0    73    8.3   108     11.2   823.0    0.00      57    999.0   48.3
 148    5:50   42.6    71    8.8   109     11.4   823.0    0.00      74    999.0   39.8
 148    6:00   43.2    70    8.1   111      9.9   823.0    0.00      92    999.0   72.0
 148    6:10   43.7    69    7.9   110     10.7   823.0    0.00     111    999.0   79.9
 148    6:20   44.6    67    8.1   115     10.4   823.0    0.00     130    999.0  135.9
 148    6:30   45.7    64    8.4   117     11.4   823.0    0.00     152    999.0   78.8
 148    6:40   46.7    62    8.5   112     12.4   823.0    0.00     173    999.0   64.3
 148    6:50   47.5    62    8.3   112     12.5   823.0    0.00     196    999.0   47.6
 148    7:00   48.3    60    8.0   116     11.9   823.0    0.00     218    999.0   47.6
 148    7:10   48.8    59    8.3   112     12.4   823.0    0.00     239    999.0   15.4
 148    7:20   49.3    58    8.5   118     12.5   823.0    0.00     260    999.0   47.8
 148    7:30   50.1    56    8.1   114     12.0   823.0    0.00     282    999.0   63.8
 148    7:40   51.1    52    6.3   113     10.4   823.0    0.00     304    999.0   39.2
 148    7:50   52.1    47    4.0   122      7.0   823.0    0.00     325    999.0   64.0
 148    8:00   53.8    41    1.7   166      4.2   823.0    0.00     344    999.0   55.5
 148    8:10   55.8    34    3.1   285      5.1   823.0    0.00     361    999.0   79.8
 148    8:20   56.0    34    2.7   278      5.8   823.0    0.00     381    999.0   79.8
 148    8:30   57.4    34    3.9   269      7.5   823.0    0.00     399    999.0   79.9
 148    8:40   57.2    33    3.3   268      7.8   823.0    0.00     418    999.0   79.8
 148    8:50   56.8    32    5.2   282     12.1   823.0    0.00     436    999.0   79.9
 148    9:00   57.1    33    5.5   272     12.1   823.0    0.00     454    999.0   79.9
 148    9:10   57.3    35    4.3   286      9.9   823.0    0.00     471    999.0   71.9
 148    9:20   56.9    35    8.2   284     12.9   823.0    0.00     486    999.0   80.0
 148    9:30   56.3    34    6.8   286     12.7   823.0    0.00     504    999.0   80.1
 148    9:40   56.5    33    7.2   292     14.0   823.0    0.00     516    999.0   80.0
 148    9:50   56.6    33    8.9   285     17.1   823.0    0.00     530    999.0   80.0
 148   10:00   56.9    33    8.7   280     13.1   823.0    0.00     545    999.0   80.1
 148   10:10   57.5    30    7.8   274     16.8   822.0    0.00     558    999.0   82.6
 148   10:20   57.2    31    9.3   282     17.5   822.0    0.00     570    999.0   80.1
 148   10:30   57.7    30    7.4   271     14.6   823.0    0.00     581    999.0   80.0
 148   10:40   59.2    30    9.2   266     16.4   822.0    0.00     589    999.0   80.1
 148   10:50   58.8    30    8.5   260     16.4   822.0    0.00     597    999.0   80.0
 148   11:00   58.2    32    8.0   272     16.6   822.0    0.00     604    999.0   72.1
 148   11:10   58.2    34    8.5   274     13.7   822.0    0.00     609    999.0   80.1
 148   11:20   58.0    33   11.4   277     16.9   822.0    0.00     587    999.0   80.1
 148   11:30   58.3    34    9.6   273     15.9   822.0    0.00     606    999.0   80.1
 148   11:40   58.6    36    9.1   278     17.2   822.0    0.00     626    999.0   80.1
 148   11:50   58.4    37   10.2   282     18.2   822.0    0.00     527    999.0   80.1
 148   12:00   58.5    38   10.8   277     18.3   822.0    0.00     521    999.0   72.1
 148   12:10   58.5    39   12.5   278     20.8   822.0    0.00     397    999.0   71.9
 148   12:20   58.8    38   12.1   270     21.2   822.0    0.00     666    999.0   80.2
 148   12:30   59.6    35   10.1   273     19.3   822.0    0.00     510    999.0   80.1
 148   12:40   59.0    36   12.8   283     20.0   822.0    0.00     630    999.0   80.0
 148   12:50   59.3    37   12.9   281     21.1   822.0    0.00     647    999.0   79.6
 148   13:00   59.4    37   11.3   275     18.5   822.0    0.00     471    999.0   64.4
 148   13:10   59.4    40   11.3   274     21.3   822.0    0.00     522    999.0   72.0
 148   13:20   58.5    43   11.9   278     18.4   822.0    0.00     238    999.0   80.1
 148   13:30   57.5    46   13.0   282     18.5   822.0    0.00     366    999.0   80.1
 148   13:40   58.3    45   12.5   280     18.6   822.0    0.00     525    999.0   79.7
 148   13:50   58.5    46   14.0   282     20.0   822.0    0.00     427    999.0   72.0
 148   14:00   58.5    46   11.4   283     18.3   822.0    0.00     425    999.0   56.1
 148   14:10   58.1    47   11.3   284     19.7   822.0    0.00     428    999.0   80.1
 148   14:20   58.4    46   13.1   278     19.6   822.0    0.00     385    999.0   72.1
 148   14:30   58.4    47   13.0   273     20.2   822.0    0.00     388    999.0   80.1
 148   14:40   57.1    50   11.8   282     15.9   822.0    0.00     299    999.0   72.0
 148   14:50   57.3    45   11.8   274     17.9   822.0    0.00     274    999.0   71.9
 148   15:00   57.4    46   12.1   284     18.9   822.0    0.00     264    999.0   72.0
 148   15:10   56.8    48   11.5   280     17.1   822.0    0.00     233    999.0   80.2
 148   15:20   57.8    45   12.0   277     21.0   821.0    0.00     113    999.0   79.8
 148   15:30   58.3    43   12.3   283     19.3   821.0    0.00     281    999.0   48.1
 148   15:40   58.8    42    9.8   276     14.0   821.0    0.00      84    999.0   80.0
 148   15:50   58.9    41   11.2   283     15.8   821.0    0.00     367    999.0   80.0
 148   16:00   58.0    41    9.9   281     16.6   821.0    0.00     272    999.0   72.1
 148   16:10   58.5    40   10.4   277     16.3   821.0    0.00     335    999.0   80.1
 148   16:20   58.9    40    8.0   272     13.7   821.0    0.00     316    999.0   63.9
 148   16:30   59.2    38   11.1   272     19.5   821.0    0.00     295    999.0   80.1
 148   16:40   58.4    39   10.7   275     17.0   821.0    0.00     275    999.0   71.8
 148   16:50   58.8    36    9.3   276     16.3   821.0    0.00     175    999.0   79.9
 148   17:00   57.7    41   10.6   280     17.6   821.0    0.00      27    999.0   80.1
 148   17:10   58.1    38    8.7   274     14.5   821.0    0.00      26    999.0   80.0
 148   17:20   58.1    37    8.7   283     15.2   821.0    0.00      25    999.0   80.0
 148   17:30   57.7    37    8.8   275     14.2   821.0    0.00      28    999.0   80.0
 148   17:40   56.9    38    8.3   284     13.0   821.0    0.00     108    999.0   80.1
 148   17:50   56.9    39    9.3   280     15.1   821.0    0.00     120    999.0   80.2
 148   18:00   56.4    41    8.8   280     12.6   821.0    0.00      34    999.0   80.2
 148   18:10   55.8    41    8.8   282     12.3   821.0    0.00      83    999.0   80.3
 148   18:20   54.9    45    8.7   279     11.9   821.0    0.00      28    999.0   80.3
 148   18:30   54.2    45    8.2   278     12.9   821.0    0.00      25    999.0   80.3
 148   18:40   53.8    46    7.8   278     11.1   821.0    0.00      17    999.0   80.3
 148   18:50   53.4    46    8.6   279     12.4   821.0    0.00      21    999.0   95.2
 148   19:00   52.6    48    6.9   279      9.6   821.0    0.00      13    999.0  127.3
 148   19:10   51.8    50    5.6   278      8.3   821.0    0.00       7    999.0  140.6
 148   19:20   50.9    52    3.5   274      6.9   821.0    0.00       4    999.0  109.7
 148   19:30   49.9    54    1.7   280      3.8   821.0    0.00       1    999.0  103.7
 148   19:40   49.8    53    2.1   271      4.1   821.0    0.00       0    999.0  119.6

Return to Cisco Butte graphs page.


Western Regional Climate Center,wrcc@dri.edu